createdAt,value
2022-09-12T00:02:21.203Z,14.20
2022-09-12T00:04:51.965Z,14.18
2022-09-12T00:07:22.305Z,14.14
2022-09-12T00:09:52.663Z,14.12
2022-09-12T00:12:22.972Z,14.12
2022-09-12T00:14:53.364Z,14.16
2022-09-12T00:17:23.691Z,14.16
2022-09-12T00:19:54.456Z,14.28
2022-09-12T00:22:25.172Z,14.10
2022-09-12T00:24:55.456Z,14.24
2022-09-12T00:27:25.945Z,14.16
2022-09-12T00:29:56.316Z,14.12
2022-09-12T00:32:26.638Z,14.12
2022-09-12T00:34:56.935Z,14.08
2022-09-12T00:37:27.254Z,14.04
2022-09-12T00:39:57.845Z,14.04
2022-09-12T00:42:28.180Z,14.04
2022-09-12T00:44:58.814Z,14.01
2022-09-12T00:47:31.818Z,13.96
2022-09-12T00:50:11.010Z,13.92
2022-09-12T00:52:47.090Z,13.96
2022-09-12T00:55:26.283Z,13.91
2022-09-12T00:58:02.326Z,13.87
2022-09-12T01:00:33.001Z,13.88
2022-09-12T01:03:06.361Z,13.76
2022-09-12T01:05:39.434Z,13.71
2022-09-12T01:08:09.798Z,13.76
2022-09-12T01:10:41.659Z,13.69
2022-09-12T01:13:14.251Z,13.65
2022-09-12T01:15:44.582Z,13.66
2022-09-12T01:18:26.530Z,13.72
2022-09-12T01:21:02.739Z,13.74
2022-09-12T01:23:48.263Z,13.68
2022-09-12T01:26:50.374Z,13.68
2022-09-12T01:29:47.795Z,13.60
2022-09-12T01:32:40.368Z,13.56
2022-09-12T01:35:36.470Z,13.48
2022-09-12T01:38:36.195Z,13.50
2022-09-12T01:41:32.104Z,13.38
2022-09-12T01:44:17.970Z,13.38
2022-09-12T01:47:09.366Z,13.42
2022-09-12T01:50:00.855Z,13.41
2022-09-12T01:52:34.600Z,13.38
2022-09-12T01:55:17.109Z,13.38
2022-09-12T01:57:53.430Z,13.41
2022-09-12T02:00:23.950Z,13.40
2022-09-12T02:02:57.962Z,13.43
2022-09-12T02:05:34.219Z,13.36
2022-09-12T02:08:13.178Z,13.28
2022-09-12T02:10:46.668Z,13.30
2022-09-12T02:13:22.784Z,13.32
2022-09-12T02:15:56.563Z,13.31
2022-09-12T02:18:29.832Z,13.31
2022-09-12T02:21:02.282Z,13.23
2022-09-12T02:23:34.524Z,13.22
2022-09-12T02:26:07.931Z,13.20
2022-09-12T02:28:41.431Z,13.22
2022-09-12T02:31:34.491Z,13.19
2022-09-12T02:34:26.183Z,13.19
2022-09-12T02:37:05.054Z,13.10
2022-09-12T02:39:35.920Z,13.14
2022-09-12T02:42:06.777Z,13.12
2022-09-12T02:44:37.810Z,13.06
2022-09-12T02:47:11.194Z,13.12
2022-09-12T02:49:41.565Z,13.17
2022-09-12T02:52:12.046Z,13.12
2022-09-12T02:54:43.244Z,13.06
2022-09-12T02:57:22.653Z,13.11
2022-09-12T02:59:53.191Z,13.11
2022-09-12T03:02:34.985Z,13.02
2022-09-12T03:05:23.547Z,13.05
2022-09-12T03:08:16.645Z,12.96
2022-09-12T03:11:09.607Z,13.06
2022-09-12T03:13:45.959Z,12.98
2022-09-12T03:16:37.642Z,13.00
2022-09-12T03:19:11.108Z,12.94
2022-09-12T03:21:59.709Z,12.96
2022-09-12T03:24:37.405Z,12.98
2022-09-12T03:27:19.993Z,12.92
2022-09-12T03:29:51.794Z,12.91
2022-09-12T03:32:24.123Z,12.94
2022-09-12T03:34:54.477Z,12.92
2022-09-12T03:37:24.807Z,12.89
2022-09-12T03:39:55.227Z,12.82
2022-09-12T03:42:25.772Z,12.78
2022-09-12T03:44:56.241Z,12.80
2022-09-12T03:47:26.520Z,12.66
2022-09-12T03:49:56.829Z,12.62
2022-09-12T03:52:27.378Z,12.62
2022-09-12T03:54:57.677Z,12.62
2022-09-12T03:57:27.986Z,12.64
2022-09-12T03:59:58.337Z,12.63
2022-09-12T04:02:29.080Z,12.66
2022-09-12T04:04:59.419Z,12.64
2022-09-12T04:07:29.798Z,12.62
2022-09-12T04:10:00.122Z,12.63
2022-09-12T04:12:31.061Z,12.56
2022-09-12T04:15:01.429Z,12.61
2022-09-12T04:17:31.877Z,12.72
2022-09-12T04:20:02.518Z,12.75
2022-09-12T04:22:33.206Z,12.70
2022-09-12T04:25:04.060Z,12.66
2022-09-12T04:27:34.894Z,12.67
2022-09-12T04:30:06.014Z,12.58
2022-09-12T04:32:36.360Z,12.57
2022-09-12T04:35:06.868Z,12.75
2022-09-12T04:37:37.190Z,12.62
2022-09-12T04:40:08.815Z,12.68
2022-09-12T04:42:39.163Z,12.62
2022-09-12T04:45:10.153Z,12.59
2022-09-12T04:47:40.594Z,12.66
2022-09-12T04:50:11.258Z,12.61
2022-09-12T04:52:42.618Z,12.62
2022-09-12T04:55:12.953Z,12.64
2022-09-12T04:57:43.362Z,12.65
2022-09-12T05:00:15.088Z,12.67
2022-09-12T05:02:45.580Z,12.66
2022-09-12T05:05:17.418Z,12.62
2022-09-12T05:07:47.837Z,12.63
2022-09-12T05:10:18.143Z,12.71
2022-09-12T05:15:38.040Z,12.60
2022-09-12T05:18:08.521Z,12.56
2022-09-12T05:20:39.036Z,12.59
2022-09-12T05:23:12.355Z,12.64
2022-09-12T05:25:50.853Z,12.54
2022-09-12T05:28:23.066Z,12.57
2022-09-12T05:31:04.934Z,12.70
2022-09-12T05:33:37.142Z,12.70
2022-09-12T05:36:09.786Z,12.70
2022-09-12T05:38:40.561Z,12.71
2022-09-12T05:41:17.479Z,12.79
2022-09-12T05:43:46.730Z,12.90
2022-09-12T05:46:19.617Z,12.91
2022-09-12T05:48:55.696Z,12.91
2022-09-12T05:51:26.439Z,12.95
2022-09-12T05:53:59.045Z,12.84
2022-09-12T05:56:32.000Z,12.88
2022-09-12T05:59:04.592Z,12.87
2022-09-12T06:01:36.377Z,12.86
2022-09-12T06:04:08.144Z,12.92
2022-09-12T06:06:48.649Z,12.92
2022-09-12T06:09:19.488Z,13.04
2022-09-12T06:11:49.822Z,13.04
2022-09-12T06:14:20.827Z,13.01
2022-09-12T06:16:51.276Z,13.10
2022-09-12T06:19:23.748Z,13.07
2022-09-12T06:21:54.337Z,13.16
2022-09-12T06:24:24.627Z,13.20
2022-09-12T06:26:54.956Z,13.24
2022-09-12T06:29:25.762Z,13.34
2022-09-12T06:31:56.143Z,13.37
2022-09-12T06:34:27.011Z,13.37
2022-09-12T06:36:57.939Z,13.43
2022-09-12T06:39:28.300Z,13.44
2022-09-12T06:41:58.840Z,13.52
2022-09-12T06:44:29.722Z,13.57
2022-09-12T06:47:00.036Z,13.58
2022-09-12T06:49:31.632Z,13.60
2022-09-12T06:52:02.164Z,13.73
2022-09-12T06:54:32.638Z,13.73
2022-09-12T06:57:02.981Z,13.79
2022-09-12T06:59:33.435Z,13.78
2022-09-12T07:02:03.801Z,13.82
2022-09-12T07:04:35.819Z,13.94
2022-09-12T07:07:06.381Z,14.00
2022-09-12T07:09:36.762Z,14.08
2022-09-12T07:12:08.012Z,14.06
2022-09-12T07:14:43.197Z,14.10
2022-09-12T07:17:13.513Z,14.18
2022-09-12T07:19:44.295Z,14.28
2022-09-12T07:22:14.717Z,14.29
2022-09-12T07:24:51.170Z,14.44
2022-09-12T07:27:28.966Z,14.48
2022-09-12T07:30:00.465Z,14.56
2022-09-12T07:32:30.855Z,14.66
2022-09-12T07:35:01.287Z,14.71
2022-09-12T07:37:32.153Z,14.73
2022-09-12T07:40:03.125Z,14.82
2022-09-12T07:42:35.706Z,14.87
2022-09-12T07:45:06.604Z,14.91
2022-09-12T07:47:37.219Z,14.96
2022-09-12T07:50:08.132Z,15.06
2022-09-12T07:52:38.587Z,15.23
2022-09-12T07:55:09.276Z,15.20
2022-09-12T07:57:39.603Z,15.44
2022-09-12T08:00:10.875Z,15.42
2022-09-12T08:02:41.370Z,15.51
2022-09-12T08:05:11.940Z,15.44
2022-09-12T08:07:42.390Z,15.41
2022-09-12T08:10:13.103Z,15.49
2022-09-12T08:12:45.183Z,15.55
2022-09-12T08:15:16.356Z,15.53
2022-09-12T08:17:46.893Z,15.75
2022-09-12T08:20:18.955Z,15.72
2022-09-12T08:22:49.357Z,15.94
2022-09-12T08:25:19.746Z,15.99
2022-09-12T08:27:50.212Z,16.09
2022-09-12T08:30:20.678Z,16.12
2022-09-12T08:32:51.089Z,16.08
2022-09-12T08:35:21.591Z,16.11
2022-09-12T08:37:52.097Z,16.20
2022-09-12T08:40:22.487Z,16.38
2022-09-12T08:43:03.644Z,16.36
2022-09-12T08:45:39.877Z,16.39
2022-09-12T08:48:12.290Z,16.54
2022-09-12T08:50:49.231Z,16.66
2022-09-12T08:53:20.342Z,16.74
2022-09-12T08:55:56.617Z,16.89
2022-09-12T08:58:29.470Z,16.90
2022-09-12T09:01:14.699Z,16.88
2022-09-12T09:04:12.815Z,16.92
2022-09-12T09:06:55.007Z,16.92
2022-09-12T09:09:37.485Z,17.09
2022-09-12T09:12:35.284Z,17.20
2022-09-12T09:15:19.127Z,17.41
2022-09-12T09:17:55.564Z,17.53
2022-09-12T09:20:56.053Z,17.63
2022-09-12T09:23:41.586Z,17.69
2022-09-12T09:26:17.801Z,17.61
2022-09-12T09:28:52.798Z,17.46
2022-09-12T09:31:26.349Z,17.38
2022-09-12T09:34:00.470Z,17.51
2022-09-12T09:36:55.379Z,17.87
2022-09-12T09:39:57.634Z,18.28
2022-09-12T09:42:53.988Z,18.64
2022-09-12T09:45:28.021Z,18.58
2022-09-12T09:48:13.204Z,18.51
2022-09-12T09:50:45.389Z,18.28
2022-09-12T09:53:44.121Z,18.14
2022-09-12T09:56:28.932Z,17.96
2022-09-12T09:59:02.426Z,18.03
2022-09-12T10:01:33.432Z,18.29
2022-09-12T10:04:04.403Z,18.44
2022-09-12T10:06:36.857Z,18.70
2022-09-12T10:09:22.413Z,18.88
2022-09-12T10:11:54.021Z,19.16
2022-09-12T10:14:39.718Z,19.18
2022-09-12T10:17:34.840Z,19.38
2022-09-12T10:20:22.024Z,19.34
2022-09-12T10:22:39.824Z,19.28
2022-09-12T10:25:13.375Z,19.22
2022-09-12T10:27:44.124Z,19.14
2022-09-12T10:30:23.066Z,19.16
2022-09-12T10:32:54.145Z,19.08
2022-09-12T10:35:27.898Z,19.27
2022-09-12T10:38:04.768Z,19.30
2022-09-12T10:40:38.168Z,19.36
2022-09-12T10:43:28.900Z,19.48
2022-09-12T10:46:02.003Z,19.62
2022-09-12T10:48:33.672Z,19.78
2022-09-12T10:51:04.062Z,19.92
2022-09-12T10:53:42.641Z,20.15
2022-09-12T10:56:25.015Z,20.32
2022-09-12T10:59:20.366Z,20.38
2022-09-12T11:02:11.027Z,20.44
2022-09-12T11:04:44.566Z,20.49
2022-09-12T11:07:20.733Z,20.51
2022-09-12T11:10:10.457Z,20.51
2022-09-12T11:12:55.755Z,20.65
2022-09-12T11:15:50.660Z,20.60
2022-09-12T11:18:46.959Z,21.14
2022-09-12T11:21:53.888Z,21.37
2022-09-12T11:24:36.072Z,21.43
2022-09-12T11:27:26.574Z,22.05
2022-09-12T11:30:12.158Z,24.32
2022-09-12T11:33:05.332Z,26.94
2022-09-12T11:35:38.785Z,28.65
2022-09-12T11:38:21.152Z,29.83
2022-09-12T11:40:57.488Z,30.99
2022-09-12T11:43:40.149Z,32.62
2022-09-12T11:46:25.782Z,33.42
2022-09-12T11:49:14.947Z,34.41
2022-09-12T11:51:54.521Z,34.74
2022-09-12T11:54:30.908Z,34.90
2022-09-12T11:57:25.748Z,35.16
2022-09-12T11:59:59.217Z,35.45
2022-09-12T12:02:41.800Z,34.35
2022-09-12T12:05:36.385Z,35.54
2022-09-12T12:08:08.292Z,34.73
2022-09-12T12:10:41.892Z,34.42
2022-09-12T12:13:31.989Z,33.03
2022-09-12T12:16:33.914Z,31.94
2022-09-12T12:19:19.120Z,29.64
2022-09-12T12:21:51.705Z,28.33
2022-09-12T12:24:25.098Z,27.19
2022-09-12T12:26:58.571Z,25.70
2022-09-12T12:29:45.795Z,24.97
2022-09-12T12:32:22.099Z,24.70
2022-09-12T12:34:55.735Z,24.49
2022-09-12T12:37:31.832Z,24.13
2022-09-12T12:40:11.579Z,23.44
2022-09-12T12:42:47.887Z,23.89
2022-09-12T12:45:33.666Z,23.53
2022-09-12T12:48:12.947Z,23.30
2022-09-12T12:50:43.556Z,23.15
2022-09-12T12:53:28.654Z,22.54
2022-09-12T12:56:00.798Z,22.29
2022-09-12T12:58:36.000Z,22.78
2022-09-12T13:01:12.508Z,22.78
2022-09-12T13:03:48.361Z,22.94
2022-09-12T13:06:42.982Z,22.98
2022-09-12T13:09:25.595Z,22.87
2022-09-12T13:12:04.929Z,22.62
2022-09-12T13:14:37.854Z,22.40
2022-09-12T13:17:10.772Z,22.25
2022-09-12T13:19:42.084Z,21.82
2022-09-12T13:22:13.009Z,21.83
2022-09-12T13:24:51.895Z,21.85
2022-09-12T13:27:26.753Z,21.88
2022-09-12T13:30:15.278Z,22.03
2022-09-12T13:32:45.995Z,21.71
2022-09-12T13:35:38.494Z,21.63
2022-09-12T13:38:20.707Z,21.60
2022-09-12T13:40:56.800Z,21.70
2022-09-12T13:43:33.025Z,21.58
2022-09-12T13:46:03.515Z,21.37
2022-09-12T13:48:37.192Z,21.36
2022-09-12T13:51:07.892Z,21.45
2022-09-12T13:53:44.169Z,21.18
2022-09-12T13:56:18.852Z,21.04
2022-09-12T13:58:56.452Z,21.05
2022-09-12T14:01:41.275Z,21.04
2022-09-12T14:04:42.794Z,21.12
2022-09-12T14:07:22.458Z,21.27
2022-09-12T14:09:59.108Z,21.24
2022-09-12T14:12:42.696Z,21.33
2022-09-12T14:15:23.570Z,21.27
2022-09-12T14:17:58.640Z,21.18
2022-09-12T14:20:33.397Z,21.06
2022-09-12T14:23:06.987Z,21.09
2022-09-12T14:25:42.351Z,21.01
2022-09-12T14:28:19.302Z,20.90
2022-09-12T14:31:16.771Z,21.00
2022-09-12T14:33:55.351Z,21.05
2022-09-12T14:36:37.567Z,20.94
2022-09-12T14:39:29.362Z,20.80
2022-09-12T14:42:18.283Z,20.64
2022-09-12T14:44:58.202Z,20.62
2022-09-12T14:47:31.278Z,20.70
2022-09-12T14:50:02.012Z,20.66
2022-09-12T14:52:35.232Z,20.61
2022-09-12T14:55:11.223Z,20.65
2022-09-12T14:57:44.123Z,20.60
2022-09-12T15:00:19.191Z,20.60
2022-09-12T15:02:54.396Z,20.66
2022-09-12T15:05:28.141Z,20.67
2022-09-12T15:08:01.492Z,20.42
2022-09-12T15:10:34.740Z,20.43
2022-09-12T15:13:17.152Z,20.38
2022-09-12T15:15:50.986Z,20.17
2022-09-12T15:18:23.932Z,20.18
2022-09-12T15:20:56.880Z,20.13
2022-09-12T15:23:36.181Z,20.08
2022-09-12T15:26:11.263Z,20.10
2022-09-12T15:28:43.477Z,19.97
2022-09-12T15:31:28.311Z,20.04
2022-09-12T15:34:00.811Z,19.92
2022-09-12T15:36:31.449Z,19.86
2022-09-12T15:39:03.315Z,19.88
2022-09-12T15:41:39.025Z,19.87
2022-09-12T15:44:12.922Z,19.76
2022-09-12T15:46:43.357Z,19.90
2022-09-12T15:49:13.796Z,19.78
2022-09-12T15:51:44.294Z,19.79
2022-09-12T15:54:17.237Z,19.67
2022-09-12T15:56:47.587Z,19.73
2022-09-12T15:59:17.965Z,19.66
2022-09-12T16:01:49.199Z,19.72
2022-09-12T16:04:25.037Z,19.65
2022-09-12T16:06:56.693Z,19.54
2022-09-12T16:09:27.147Z,19.49
2022-09-12T16:11:57.541Z,19.44
2022-09-12T16:14:27.898Z,19.52
2022-09-12T16:16:58.556Z,19.40
2022-09-12T16:19:28.836Z,19.36
2022-09-12T16:21:59.287Z,19.34
2022-09-12T16:24:29.522Z,19.29
2022-09-12T16:27:01.246Z,19.23
2022-09-12T16:29:31.957Z,19.19
2022-09-12T16:32:02.409Z,19.33
2022-09-12T16:34:32.780Z,19.23
2022-09-12T16:37:03.124Z,19.18
2022-09-12T16:39:38.865Z,19.14
2022-09-12T16:42:12.178Z,19.14
2022-09-12T16:44:43.192Z,19.12
2022-09-12T16:47:14.336Z,19.03
2022-09-12T16:49:44.831Z,18.98
2022-09-12T16:52:16.598Z,18.96
2022-09-12T16:54:46.947Z,18.88
2022-09-12T16:57:17.457Z,18.91
2022-09-12T16:59:47.852Z,18.74
2022-09-12T17:02:18.296Z,18.65
2022-09-12T17:04:48.941Z,18.56
2022-09-12T17:07:22.976Z,18.50
2022-09-12T17:09:53.442Z,18.44
2022-09-12T17:12:24.074Z,18.36
2022-09-12T17:14:57.309Z,18.28
2022-09-12T17:17:31.365Z,18.20
2022-09-12T17:20:01.899Z,18.18
2022-09-12T17:22:33.559Z,18.12
2022-09-12T17:25:07.395Z,18.08
2022-09-12T17:27:37.781Z,18.01
2022-09-12T17:30:09.497Z,17.95
2022-09-12T17:32:39.864Z,17.92
2022-09-12T17:35:11.007Z,17.86
2022-09-12T17:37:42.125Z,17.82
2022-09-12T17:40:12.817Z,17.76
2022-09-12T17:42:44.275Z,17.71
2022-09-12T17:45:18.308Z,17.68
2022-09-12T17:47:47.267Z,17.62
2022-09-12T17:50:31.801Z,17.56
2022-09-12T17:52:52.892Z,17.52
2022-09-12T17:55:23.201Z,17.46
2022-09-12T17:57:54.060Z,17.44
2022-09-12T18:00:26.037Z,17.38
2022-09-12T18:02:56.420Z,17.34
2022-09-12T18:05:26.898Z,17.32
2022-09-12T18:07:57.277Z,17.30
2022-09-12T18:10:27.837Z,17.26
2022-09-12T18:12:58.780Z,17.26
2022-09-12T18:15:29.713Z,17.24
2022-09-12T18:18:00.156Z,17.22
2022-09-12T18:20:30.534Z,17.19
2022-09-12T18:23:01.318Z,17.16
2022-09-12T18:25:31.773Z,17.13
2022-09-12T18:28:06.076Z,17.12
2022-09-12T18:30:34.231Z,17.09
2022-09-12T18:33:04.793Z,17.06
2022-09-12T18:35:36.647Z,17.05
2022-09-12T18:38:07.148Z,17.02
2022-09-12T18:40:37.528Z,17.00
2022-09-12T18:43:08.037Z,16.93
2022-09-12T18:45:38.401Z,16.90
2022-09-12T18:48:09.386Z,16.87
2022-09-12T18:50:39.830Z,16.83
2022-09-12T18:53:11.232Z,16.81
2022-09-12T18:55:42.284Z,16.76
2022-09-12T18:58:12.641Z,16.69
2022-09-12T19:00:44.678Z,16.66
2022-09-12T19:03:15.071Z,16.63
2022-09-12T19:05:45.521Z,16.59
2022-09-12T19:08:15.837Z,16.54
2022-09-12T19:10:46.137Z,16.52
2022-09-12T19:13:17.482Z,16.44
2022-09-12T19:15:47.963Z,16.46
2022-09-12T19:18:18.575Z,16.39
2022-09-12T19:20:52.929Z,16.35
2022-09-12T19:23:23.323Z,16.34
2022-09-12T19:25:58.524Z,16.31
2022-09-12T19:28:29.481Z,16.28
2022-09-12T19:30:59.946Z,16.26
2022-09-12T19:33:30.419Z,16.24
2022-09-12T19:36:17.568Z,16.18
2022-09-12T19:38:41.616Z,16.18
2022-09-12T19:41:15.316Z,16.14
2022-09-12T19:43:48.250Z,16.14
2022-09-12T19:46:20.397Z,16.10
2022-09-12T19:48:52.163Z,16.04
2022-09-12T19:51:25.136Z,16.05
2022-09-12T19:53:55.628Z,15.95
2022-09-12T19:56:26.198Z,15.94
2022-09-12T19:58:57.842Z,15.98
2022-09-12T20:01:29.201Z,15.93
2022-09-12T20:03:59.971Z,15.94
2022-09-12T20:06:30.363Z,15.90
2022-09-12T20:09:00.843Z,15.91
2022-09-12T20:11:31.365Z,15.89
2022-09-12T20:14:01.864Z,15.87
2022-09-12T20:16:33.440Z,15.84
2022-09-12T20:19:09.357Z,15.83
2022-09-12T20:21:40.697Z,15.80
2022-09-12T20:24:15.982Z,15.79
2022-09-12T20:26:46.753Z,15.78
2022-09-12T20:29:17.120Z,15.74
2022-09-12T20:31:47.631Z,15.72
2022-09-12T20:34:20.839Z,15.80
2022-09-12T20:36:51.240Z,15.76
2022-09-12T20:39:23.598Z,15.73
2022-09-12T20:41:54.060Z,15.73
2022-09-12T20:44:24.448Z,15.69
2022-09-12T20:46:54.966Z,15.70
2022-09-12T20:49:25.433Z,15.66
2022-09-12T20:51:55.827Z,15.64
2022-09-12T20:54:26.226Z,15.63
2022-09-12T20:56:56.642Z,15.65
2022-09-12T20:59:27.311Z,15.61
2022-09-12T21:01:57.817Z,15.61
2022-09-12T21:04:28.310Z,15.58
2022-09-12T21:06:58.658Z,15.58
2022-09-12T21:09:29.064Z,15.54
2022-09-12T21:11:59.473Z,15.61
2022-09-12T21:14:29.874Z,15.57
2022-09-12T21:17:00.521Z,15.60
2022-09-12T21:19:30.834Z,15.63
2022-09-12T21:22:01.290Z,15.59
2022-09-12T21:24:31.686Z,15.64
2022-09-12T21:27:04.388Z,15.59
2022-09-12T21:29:34.433Z,15.54
2022-09-12T21:32:05.917Z,15.51
2022-09-12T21:34:36.609Z,15.52
2022-09-12T21:37:07.037Z,15.46
2022-09-12T21:39:37.387Z,15.49
2022-09-12T21:42:07.843Z,15.44
2022-09-12T21:44:38.321Z,15.40
2022-09-12T21:47:09.312Z,15.66
2022-09-12T21:49:39.664Z,15.56
2022-09-12T21:52:11.156Z,15.61
2022-09-12T21:54:41.546Z,15.74
2022-09-12T21:57:11.931Z,15.61
2022-09-12T21:59:42.363Z,15.61
2022-09-12T22:02:13.847Z,15.56
2022-09-12T22:04:44.345Z,15.54
2022-09-12T22:07:14.733Z,15.52
2022-09-12T22:09:45.399Z,15.60
2022-09-12T22:12:15.822Z,15.64
2022-09-12T22:14:46.669Z,15.57
2022-09-12T22:17:17.065Z,15.52
2022-09-12T22:19:47.481Z,15.48
2022-09-12T22:22:36.013Z,15.48
2022-09-12T22:25:09.937Z,15.46
2022-09-12T22:27:40.448Z,15.42
2022-09-12T22:30:11.917Z,15.40
2022-09-12T22:32:42.340Z,15.37
2022-09-12T22:35:12.708Z,15.37
2022-09-12T22:37:43.954Z,15.36
2022-09-12T22:40:15.508Z,15.46
2022-09-12T22:42:46.021Z,15.45
2022-09-12T22:45:16.692Z,15.36
2022-09-12T22:47:47.315Z,15.34
2022-09-12T22:50:17.690Z,15.34
2022-09-12T22:52:48.249Z,15.30
2022-09-12T22:55:18.734Z,15.24
2022-09-12T22:57:49.486Z,15.30
2022-09-12T23:00:19.941Z,15.38
2022-09-12T23:02:50.400Z,15.26
2022-09-12T23:05:20.948Z,15.29
2022-09-12T23:07:51.996Z,15.18
2022-09-12T23:10:22.771Z,15.20
2022-09-12T23:12:54.939Z,15.16
2022-09-12T23:15:25.333Z,15.10
2022-09-12T23:17:55.806Z,15.18
2022-09-12T23:20:26.558Z,15.10
2022-09-12T23:22:57.021Z,15.17
2022-09-12T23:25:27.532Z,15.16
2022-09-12T23:27:58.595Z,15.05
2022-09-12T23:30:29.074Z,15.05
2022-09-12T23:32:59.398Z,15.01
2022-09-12T23:35:29.777Z,15.22
2022-09-12T23:38:00.557Z,15.13
2022-09-12T23:40:30.949Z,15.03
2022-09-12T23:43:01.339Z,15.04
2022-09-12T23:45:31.880Z,15.12
2022-09-12T23:48:02.451Z,15.03
2022-09-12T23:50:32.947Z,14.98
2022-09-12T23:53:03.318Z,15.02
2022-09-12T23:55:33.674Z,15.01
2022-09-12T23:58:04.093Z,15.06
